createdAt,value
2019-05-26T00:00:11.550Z,85.30
2019-05-26T00:02:40.326Z,85.70
2019-05-26T00:05:09.646Z,85.40
2019-05-26T00:07:38.517Z,86.00
2019-05-26T00:10:07.934Z,85.60
2019-05-26T00:12:36.846Z,86.10
2019-05-26T00:15:06.045Z,86.10
2019-05-26T00:17:35.270Z,85.90
2019-05-26T00:20:04.621Z,86.00
2019-05-26T00:22:33.386Z,86.10
2019-05-26T00:25:02.242Z,86.30
2019-05-26T00:27:31.038Z,86.40
2019-05-26T00:29:59.813Z,86.70
2019-05-26T00:32:28.614Z,86.60
2019-05-26T00:34:57.390Z,86.60
2019-05-26T00:37:26.161Z,87.30
2019-05-26T00:39:55.197Z,86.50
2019-05-26T00:42:24.048Z,86.80
2019-05-26T00:44:52.846Z,86.60
2019-05-26T00:47:21.715Z,87.10
2019-05-26T00:49:50.524Z,87.00
2019-05-26T00:52:19.361Z,87.00
2019-05-26T00:54:48.286Z,87.10
2019-05-26T00:57:17.235Z,86.90
2019-05-26T00:59:46.097Z,87.20
2019-05-26T01:02:14.885Z,87.40
2019-05-26T01:04:43.741Z,87.50
2019-05-26T01:07:12.905Z,87.30
2019-05-26T01:09:41.832Z,87.70
2019-05-26T01:12:10.697Z,87.50
2019-05-26T01:14:39.482Z,87.60
2019-05-26T01:17:08.333Z,87.50
2019-05-26T01:19:37.188Z,88.30
2019-05-26T01:22:06.101Z,87.90
2019-05-26T01:24:34.911Z,87.50
2019-05-26T01:27:03.832Z,88.00
2019-05-26T01:29:32.661Z,87.70
2019-05-26T01:32:01.497Z,87.90
2019-05-26T01:34:30.405Z,88.20
2019-05-26T01:36:59.717Z,88.10
2019-05-26T01:39:28.701Z,88.30
2019-05-26T01:41:57.496Z,88.40
2019-05-26T01:44:26.344Z,88.30
2019-05-26T01:46:55.226Z,88.50
2019-05-26T01:49:23.993Z,88.40
2019-05-26T01:51:52.782Z,88.50
2019-05-26T01:54:21.545Z,88.50
2019-05-26T01:56:50.326Z,88.50
2019-05-26T01:59:19.536Z,88.60
2019-05-26T02:01:48.456Z,87.80
2019-05-26T02:04:17.699Z,88.40
2019-05-26T02:06:46.590Z,88.20
2019-05-26T02:09:15.434Z,87.80
2019-05-26T02:11:44.242Z,88.50
2019-05-26T02:14:14.657Z,88.70
2019-05-26T02:16:43.638Z,88.70
2019-05-26T02:19:12.509Z,88.60
2019-05-26T02:21:41.295Z,88.80
2019-05-26T02:24:10.050Z,88.90
2019-05-26T02:26:38.839Z,88.90
2019-05-26T02:29:07.765Z,89.20
2019-05-26T02:31:36.890Z,89.10
2019-05-26T02:34:05.683Z,88.90
2019-05-26T02:36:34.547Z,88.90
2019-05-26T02:39:04.414Z,89.20
2019-05-26T02:41:33.304Z,89.40
2019-05-26T02:44:02.142Z,89.20
2019-05-26T02:46:30.983Z,89.60
2019-05-26T02:48:59.858Z,89.40
2019-05-26T02:51:28.614Z,89.70
2019-05-26T02:53:57.474Z,89.60
2019-05-26T02:56:26.811Z,89.60
2019-05-26T02:58:55.597Z,89.90
2019-05-26T03:01:24.930Z,90.10
2019-05-26T03:03:53.899Z,89.90
2019-05-26T03:06:23.704Z,90.00
2019-05-26T03:08:53.931Z,90.00
2019-05-26T03:11:26.040Z,90.00
2019-05-26T03:13:56.851Z,90.10
2019-05-26T03:16:28.515Z,90.00
2019-05-26T03:18:59.027Z,90.10
2019-05-26T03:21:29.909Z,90.20
2019-05-26T03:24:02.323Z,90.20
2019-05-26T03:26:31.425Z,90.20
2019-05-26T03:29:00.283Z,90.20
2019-05-26T03:31:29.202Z,90.30
2019-05-26T03:33:57.970Z,90.20
2019-05-26T03:36:26.802Z,90.20
2019-05-26T03:38:55.578Z,90.20
2019-05-26T03:41:24.429Z,90.20
2019-05-26T03:43:53.212Z,90.50
2019-05-26T03:46:22.210Z,90.60
2019-05-26T03:48:51.351Z,90.40
2019-05-26T03:51:20.376Z,90.50
2019-05-26T03:53:49.381Z,90.60
2019-05-26T03:56:18.626Z,90.60
2019-05-26T03:58:47.573Z,90.30
2019-05-26T04:01:16.499Z,90.70
2019-05-26T04:03:45.370Z,90.60
2019-05-26T04:06:14.149Z,90.60
2019-05-26T04:08:43.090Z,90.70
2019-05-26T04:11:11.917Z,90.90
2019-05-26T04:13:40.838Z,90.70
2019-05-26T04:16:09.672Z,90.80
2019-05-26T04:18:38.436Z,91.00
2019-05-26T04:21:07.369Z,90.80
2019-05-26T04:23:36.138Z,90.70
2019-05-26T04:28:39.173Z,90.90
2019-05-26T04:31:08.158Z,91.30
2019-05-26T04:33:37.006Z,91.00
2019-05-26T04:36:05.921Z,91.10
2019-05-26T04:38:34.822Z,90.90
2019-05-26T04:41:03.683Z,90.70
2019-05-26T04:43:32.455Z,90.90
2019-05-26T04:46:01.890Z,91.00
2019-05-26T04:48:30.661Z,91.00
2019-05-26T04:50:59.417Z,90.90
2019-05-26T04:53:28.258Z,90.40
2019-05-26T04:55:57.030Z,90.10
2019-05-26T04:58:25.983Z,89.10
2019-05-26T05:00:54.841Z,88.40
2019-05-26T05:03:23.848Z,88.20
2019-05-26T05:05:52.697Z,86.50
2019-05-26T05:08:21.470Z,85.60
2019-05-26T05:10:50.330Z,86.00
2019-05-26T05:13:19.114Z,84.90
2019-05-26T05:15:47.890Z,83.40
2019-05-26T05:18:16.764Z,81.40
2019-05-26T05:20:45.585Z,80.90
2019-05-26T05:23:14.357Z,79.80
2019-05-26T05:25:43.922Z,79.10
2019-05-26T05:28:12.858Z,78.60
2019-05-26T05:30:41.815Z,78.10
2019-05-26T05:33:10.681Z,78.00
2019-05-26T05:35:39.470Z,77.60
2019-05-26T05:38:08.454Z,77.10
2019-05-26T05:40:37.385Z,77.20
2019-05-26T05:43:06.162Z,77.50
2019-05-26T05:45:35.026Z,77.10
2019-05-26T05:48:04.438Z,76.50
2019-05-26T05:50:33.242Z,76.30
2019-05-26T05:53:02.021Z,76.10
2019-05-26T05:55:30.961Z,75.00
2019-05-26T05:57:59.817Z,75.10
2019-05-26T06:00:28.604Z,74.50
2019-05-26T06:02:57.460Z,74.80
2019-05-26T06:05:26.326Z,73.90
2019-05-26T06:07:55.093Z,74.30
2019-05-26T06:10:24.378Z,74.00
2019-05-26T06:12:53.175Z,74.20
2019-05-26T06:15:22.134Z,74.20
2019-05-26T06:17:50.963Z,73.50
2019-05-26T06:20:19.869Z,72.70
2019-05-26T06:22:48.659Z,71.60
2019-05-26T06:25:18.564Z,69.90
2019-05-26T06:27:47.421Z,69.50
2019-05-26T06:30:16.621Z,66.80
2019-05-26T06:32:45.499Z,65.10
2019-05-26T06:35:15.714Z,63.20
2019-05-26T06:37:45.267Z,59.00
2019-05-26T06:40:14.654Z,57.10
2019-05-26T06:42:43.534Z,53.70
2019-05-26T06:45:12.461Z,54.40
2019-05-26T06:47:41.271Z,52.40
2019-05-26T06:50:10.384Z,50.60
2019-05-26T06:52:39.167Z,49.00
2019-05-26T06:55:08.196Z,45.00
2019-05-26T06:57:37.067Z,47.20
2019-05-26T07:00:06.614Z,45.80
2019-05-26T07:02:35.553Z,47.10
2019-05-26T07:05:05.117Z,46.40
2019-05-26T07:07:33.950Z,46.50
2019-05-26T07:10:02.758Z,45.20
2019-05-26T07:12:31.629Z,43.90
2019-05-26T07:15:00.490Z,44.90
2019-05-26T07:17:29.370Z,43.50
2019-05-26T07:19:58.159Z,42.90
2019-05-26T07:22:27.020Z,43.20
2019-05-26T07:24:55.796Z,41.10
2019-05-26T07:27:24.606Z,39.40
2019-05-26T07:29:53.763Z,37.80
2019-05-26T07:32:22.618Z,36.20
2019-05-26T07:34:51.673Z,34.60
2019-05-26T07:37:20.443Z,30.40
2019-05-26T07:39:49.306Z,30.00
2019-05-26T07:42:18.105Z,29.00
2019-05-26T07:44:47.013Z,27.70
2019-05-26T07:47:16.058Z,26.80
2019-05-26T07:49:45.177Z,26.20
2019-05-26T07:52:14.022Z,26.40
2019-05-26T07:54:42.800Z,25.30
2019-05-26T07:57:11.834Z,24.30
2019-05-26T07:59:40.790Z,25.20
2019-05-26T08:02:09.910Z,24.30
2019-05-26T08:04:38.781Z,23.90
2019-05-26T08:07:07.568Z,23.10
2019-05-26T08:09:36.717Z,22.60
2019-05-26T08:12:05.569Z,22.30
2019-05-26T08:14:34.435Z,21.40
2019-05-26T08:17:03.349Z,20.90
2019-05-26T08:19:32.141Z,20.80
2019-05-26T08:22:00.929Z,20.80
2019-05-26T08:24:29.963Z,21.40
2019-05-26T08:26:58.721Z,20.80
2019-05-26T08:29:27.584Z,21.30
2019-05-26T08:31:56.446Z,21.10
2019-05-26T08:34:25.225Z,21.10
2019-05-26T08:36:54.093Z,20.80
2019-05-26T08:39:22.944Z,19.90
2019-05-26T08:41:51.786Z,19.50
2019-05-26T08:44:20.642Z,18.70
2019-05-26T08:46:49.426Z,18.20
2019-05-26T08:49:18.593Z,18.20
2019-05-26T08:51:47.385Z,17.00
2019-05-26T08:54:16.145Z,16.60
2019-05-26T08:56:45.209Z,16.10
2019-05-26T08:59:13.995Z,16.00
2019-05-26T09:01:42.770Z,16.00
2019-05-26T09:04:11.642Z,15.50
2019-05-26T09:06:40.468Z,15.30
2019-05-26T09:09:09.382Z,15.10
2019-05-26T09:11:38.159Z,14.50
2019-05-26T09:14:07.083Z,13.60
2019-05-26T09:16:35.867Z,13.80
2019-05-26T09:19:04.709Z,13.80
2019-05-26T09:21:33.486Z,13.30
2019-05-26T09:24:02.263Z,12.40
2019-05-26T09:26:31.045Z,12.60
2019-05-26T09:28:59.965Z,12.50
2019-05-26T09:31:28.757Z,13.00
2019-05-26T09:33:57.618Z,12.70
2019-05-26T09:36:26.397Z,12.30
2019-05-26T09:38:55.265Z,11.80
2019-05-26T09:41:24.037Z,11.40
2019-05-26T09:43:52.814Z,11.50
2019-05-26T09:46:21.654Z,11.20
2019-05-26T09:48:50.614Z,10.90
2019-05-26T09:51:19.577Z,10.60
2019-05-26T09:54:00.772Z,10.00
2019-05-26T09:56:18.886Z,10.00
2019-05-26T09:58:47.774Z,9.60
2019-05-26T10:01:16.979Z,9.20
2019-05-26T10:03:46.402Z,9.30
2019-05-26T10:06:15.178Z,10.50
2019-05-26T10:08:43.953Z,13.40
2019-05-26T10:11:12.806Z,11.40
2019-05-26T10:13:41.665Z,10.70
2019-05-26T10:16:10.431Z,9.60
2019-05-26T10:18:39.201Z,9.00
2019-05-26T10:21:08.039Z,8.30
2019-05-26T10:23:36.822Z,8.00
2019-05-26T10:26:05.686Z,7.70
2019-05-26T10:28:34.503Z,7.70
2019-05-26T10:31:03.346Z,7.70
2019-05-26T10:33:32.325Z,7.40
2019-05-26T10:36:01.128Z,7.40
2019-05-26T10:38:29.905Z,7.20
2019-05-26T10:40:58.754Z,7.00
2019-05-26T10:43:27.570Z,7.30
2019-05-26T10:45:56.420Z,6.70
2019-05-26T10:48:25.211Z,6.50
2019-05-26T10:50:54.305Z,6.40
2019-05-26T10:53:23.240Z,6.30
2019-05-26T10:55:52.027Z,6.30
2019-05-26T10:58:20.888Z,5.90
2019-05-26T11:00:49.796Z,5.90
2019-05-26T11:03:18.562Z,5.80
2019-05-26T11:05:47.361Z,5.60
2019-05-26T11:08:16.153Z,5.30
2019-05-26T11:10:44.987Z,5.70
2019-05-26T11:13:13.756Z,5.70
2019-05-26T11:15:42.917Z,6.10
2019-05-26T11:18:11.693Z,5.80
2019-05-26T11:20:40.462Z,5.60
2019-05-26T11:23:09.247Z,5.60
2019-05-26T11:25:38.190Z,5.80
2019-05-26T11:28:06.969Z,5.80
2019-05-26T11:30:35.901Z,5.70
2019-05-26T11:33:04.814Z,6.10
2019-05-26T11:35:33.626Z,7.00
2019-05-26T11:38:02.410Z,8.10
2019-05-26T11:40:31.200Z,8.70
2019-05-26T11:42:59.954Z,9.60
2019-05-26T11:45:28.735Z,8.60
2019-05-26T11:47:57.526Z,7.50
2019-05-26T11:50:26.394Z,7.20
2019-05-26T11:52:55.166Z,6.90
2019-05-26T11:55:23.937Z,9.10
2019-05-26T11:57:52.830Z,9.90
2019-05-26T12:00:21.792Z,10.00
2019-05-26T12:02:50.726Z,10.70
2019-05-26T12:05:20.259Z,11.50
2019-05-26T12:07:49.254Z,13.20
2019-05-26T12:10:18.308Z,14.70
2019-05-26T12:12:47.253Z,15.30
2019-05-26T12:15:17.658Z,15.90
2019-05-26T12:17:46.415Z,16.90
2019-05-26T12:20:15.754Z,18.30
2019-05-26T12:22:44.614Z,18.50
2019-05-26T12:25:13.923Z,19.10
2019-05-26T12:27:42.805Z,20.10
2019-05-26T12:30:12.147Z,19.90
2019-05-26T12:32:40.921Z,21.20
2019-05-26T12:35:10.034Z,21.20
2019-05-26T12:37:38.826Z,22.00
2019-05-26T12:40:09.365Z,22.60
2019-05-26T12:42:38.207Z,22.80
2019-05-26T12:45:09.079Z,22.90
2019-05-26T12:47:38.370Z,23.50
2019-05-26T12:50:09.044Z,23.60
2019-05-26T12:52:38.158Z,24.00
2019-05-26T12:55:09.706Z,24.80
2019-05-26T12:57:39.355Z,24.20
2019-05-26T13:00:09.196Z,24.30
2019-05-26T13:02:38.341Z,24.40
2019-05-26T13:05:07.857Z,24.50
2019-05-26T13:07:37.005Z,24.10
2019-05-26T13:10:06.385Z,24.10
2019-05-26T13:12:35.571Z,24.10
2019-05-26T13:15:06.331Z,23.90
2019-05-26T13:17:35.720Z,23.90
2019-05-26T13:20:05.284Z,24.40
2019-05-26T13:22:34.973Z,23.90
2019-05-26T13:25:04.747Z,23.80
2019-05-26T13:27:33.932Z,24.00
2019-05-26T13:30:03.308Z,24.30
2019-05-26T13:32:32.555Z,24.30
2019-05-26T13:35:01.746Z,24.50
2019-05-26T13:37:30.920Z,25.10
2019-05-26T13:39:59.937Z,24.80
2019-05-26T13:42:29.011Z,25.80
2019-05-26T13:44:58.168Z,25.50
2019-05-26T13:47:27.341Z,25.90
2019-05-26T13:49:56.491Z,26.00
2019-05-26T13:52:25.538Z,26.00
2019-05-26T13:54:54.675Z,26.10
2019-05-26T13:57:23.860Z,26.20
2019-05-26T13:59:53.176Z,26.00
2019-05-26T14:02:22.409Z,26.10
2019-05-26T14:04:51.993Z,25.70
2019-05-26T14:07:21.157Z,25.60
2019-05-26T14:09:50.224Z,26.00
2019-05-26T14:12:19.401Z,26.00
2019-05-26T14:14:49.334Z,26.60
2019-05-26T14:17:18.580Z,26.80
2019-05-26T14:19:50.861Z,27.10
2019-05-26T14:22:20.067Z,27.40
2019-05-26T14:24:53.706Z,27.30
2019-05-26T14:27:20.469Z,26.50
2019-05-26T14:29:49.818Z,27.60
2019-05-26T14:32:19.024Z,27.40
2019-05-26T14:34:48.338Z,28.10
2019-05-26T14:37:17.474Z,28.00
2019-05-26T14:39:49.869Z,28.90
2019-05-26T14:42:17.456Z,29.10
2019-05-26T14:44:46.551Z,29.00
2019-05-26T14:47:15.705Z,29.30
2019-05-26T14:49:45.030Z,29.90
2019-05-26T14:52:14.025Z,29.70
2019-05-26T14:54:43.138Z,29.50
2019-05-26T14:57:12.304Z,30.10
2019-05-26T14:59:41.453Z,30.60
2019-05-26T15:02:10.633Z,29.90
2019-05-26T15:04:39.730Z,30.40
2019-05-26T15:07:08.935Z,30.20
2019-05-26T15:09:38.263Z,30.60
2019-05-26T15:12:07.364Z,31.30
2019-05-26T15:14:36.514Z,31.00
2019-05-26T15:17:05.631Z,31.70
2019-05-26T15:19:34.787Z,32.80
2019-05-26T15:22:03.941Z,32.90
2019-05-26T15:24:33.090Z,32.70
2019-05-26T15:27:02.313Z,32.80
2019-05-26T15:29:31.658Z,32.50
2019-05-26T15:32:03.087Z,32.70
2019-05-26T15:34:31.870Z,32.40
2019-05-26T15:37:01.192Z,32.70
2019-05-26T15:39:30.342Z,32.90
2019-05-26T15:41:59.445Z,32.90
2019-05-26T15:44:28.560Z,33.40
2019-05-26T15:46:57.609Z,32.40
2019-05-26T15:49:26.697Z,32.30
2019-05-26T15:51:55.848Z,32.60
2019-05-26T15:54:24.934Z,32.60
2019-05-26T15:56:54.402Z,32.70
2019-05-26T15:59:23.561Z,33.20
2019-05-26T16:01:52.671Z,34.10
2019-05-26T16:04:21.719Z,33.80
2019-05-26T16:06:50.783Z,34.40
2019-05-26T16:09:19.955Z,34.40
2019-05-26T16:11:48.914Z,35.00
2019-05-26T16:14:17.916Z,35.10
2019-05-26T16:16:46.967Z,35.30
2019-05-26T16:19:16.084Z,35.40
2019-05-26T16:21:45.294Z,36.20
2019-05-26T16:24:14.589Z,36.00
2019-05-26T16:26:43.743Z,36.70
2019-05-26T16:29:12.878Z,36.70
2019-05-26T16:31:41.952Z,37.40
2019-05-26T16:34:11.020Z,37.60
2019-05-26T16:36:40.130Z,37.90
2019-05-26T16:39:09.295Z,37.70
2019-05-26T16:41:38.714Z,38.30
2019-05-26T16:44:07.546Z,38.60
2019-05-26T16:46:36.502Z,39.10
2019-05-26T16:49:05.688Z,39.60
2019-05-26T16:51:34.894Z,39.50
2019-05-26T16:54:04.299Z,40.60
2019-05-26T16:56:33.442Z,40.80
2019-05-26T16:59:02.671Z,40.80
2019-05-26T17:01:31.855Z,41.00
2019-05-26T17:04:00.861Z,41.30
2019-05-26T17:06:29.882Z,41.20
2019-05-26T17:08:59.064Z,41.30
2019-05-26T17:11:28.205Z,41.60
2019-05-26T17:13:57.522Z,42.00
2019-05-26T17:16:26.730Z,42.00
2019-05-26T17:18:55.858Z,42.00
2019-05-26T17:21:24.998Z,42.10
2019-05-26T17:23:54.056Z,42.50
2019-05-26T17:26:23.218Z,43.10
2019-05-26T17:28:52.228Z,43.00
2019-05-26T17:31:21.368Z,43.70
2019-05-26T17:33:50.474Z,44.30
2019-05-26T17:36:19.779Z,44.10
2019-05-26T17:38:49.122Z,45.10
2019-05-26T17:41:18.260Z,45.80
2019-05-26T17:43:47.386Z,45.20
2019-05-26T17:46:16.446Z,45.70
2019-05-26T17:48:45.566Z,46.30
2019-05-26T17:51:14.778Z,46.30
2019-05-26T17:53:43.823Z,47.20
2019-05-26T17:56:12.987Z,48.30
2019-05-26T17:58:42.099Z,48.00
2019-05-26T18:01:11.262Z,48.10
2019-05-26T18:03:40.465Z,48.30
2019-05-26T18:06:09.732Z,48.90
2019-05-26T18:08:39.000Z,48.90
2019-05-26T18:11:08.544Z,48.20
2019-05-26T18:13:37.685Z,48.40
2019-05-26T18:16:06.867Z,48.60
2019-05-26T18:18:36.000Z,48.90
2019-05-26T18:21:05.247Z,48.80
2019-05-26T18:23:34.693Z,48.70
2019-05-26T18:26:03.789Z,48.90
2019-05-26T18:28:33.005Z,49.60
2019-05-26T18:31:02.169Z,49.80
2019-05-26T18:33:31.243Z,49.40
2019-05-26T18:36:00.421Z,49.60
2019-05-26T18:38:29.571Z,50.60
2019-05-26T18:40:58.764Z,50.80
2019-05-26T18:43:28.020Z,51.90
2019-05-26T18:45:57.177Z,50.80
2019-05-26T18:48:26.293Z,52.00
2019-05-26T18:50:55.435Z,51.80
2019-05-26T18:53:24.866Z,52.60
2019-05-26T18:55:53.910Z,52.50
2019-05-26T18:58:23.124Z,53.30
2019-05-26T19:00:52.612Z,53.80
2019-05-26T19:03:22.029Z,53.40
2019-05-26T19:05:51.240Z,53.80
2019-05-26T19:08:20.493Z,54.30
2019-05-26T19:10:49.516Z,54.20
2019-05-26T19:13:18.700Z,55.00
2019-05-26T19:15:47.949Z,55.20
2019-05-26T19:18:20.255Z,55.40
2019-05-26T19:20:48.087Z,55.90
2019-05-26T19:23:17.217Z,55.80
2019-05-26T19:25:46.230Z,56.10
2019-05-26T19:28:15.457Z,56.10
2019-05-26T19:30:45.695Z,56.70
2019-05-26T19:33:15.030Z,57.10
2019-05-26T19:35:44.242Z,57.40
2019-05-26T19:38:13.544Z,57.30
2019-05-26T19:40:42.711Z,58.10
2019-05-26T19:43:11.889Z,59.30
2019-05-26T19:45:41.591Z,59.40
2019-05-26T19:48:10.748Z,59.50
2019-05-26T19:50:39.938Z,60.30
2019-05-26T19:53:09.189Z,60.70
2019-05-26T19:55:38.540Z,60.50
2019-05-26T19:58:07.739Z,60.70
2019-05-26T20:00:36.915Z,60.80
2019-05-26T20:03:06.077Z,60.60
2019-05-26T20:05:35.317Z,61.40
2019-05-26T20:08:04.451Z,61.70
2019-05-26T20:10:33.989Z,61.70
2019-05-26T20:13:03.196Z,61.60
2019-05-26T20:15:32.358Z,61.50
2019-05-26T20:18:01.475Z,61.90
2019-05-26T20:20:30.624Z,62.60
2019-05-26T20:22:59.655Z,62.70
2019-05-26T20:25:29.354Z,63.50
2019-05-26T20:27:58.448Z,63.30
2019-05-26T20:30:27.919Z,63.20
2019-05-26T20:32:57.093Z,64.30
2019-05-26T20:35:26.250Z,63.90
2019-05-26T20:37:55.305Z,64.60
2019-05-26T20:40:24.506Z,64.70
2019-05-26T20:42:53.606Z,63.90
2019-05-26T20:45:22.741Z,65.00
2019-05-26T20:47:51.915Z,65.10
2019-05-26T20:50:29.186Z,65.70
2019-05-26T20:52:51.980Z,65.20
2019-05-26T20:55:21.177Z,66.00
2019-05-26T20:57:50.367Z,65.30
2019-05-26T21:00:19.979Z,66.20
2019-05-26T21:02:49.287Z,66.70
2019-05-26T21:05:18.538Z,65.60
2019-05-26T21:07:47.422Z,66.40
2019-05-26T21:10:16.439Z,65.90
2019-05-26T21:12:45.587Z,65.30
2019-05-26T21:15:15.172Z,65.00
2019-05-26T21:17:44.291Z,65.40
2019-05-26T21:20:13.712Z,65.70
2019-05-26T21:22:42.876Z,65.60
2019-05-26T21:25:12.123Z,64.40
2019-05-26T21:27:41.209Z,65.60
2019-05-26T21:30:10.456Z,64.20
2019-05-26T21:32:39.526Z,65.00
2019-05-26T21:35:08.852Z,63.30
2019-05-26T21:37:37.940Z,64.50
2019-05-26T21:40:07.631Z,64.50
2019-05-26T21:42:36.754Z,64.10
2019-05-26T21:45:06.273Z,63.60
2019-05-26T21:47:35.360Z,63.50
2019-05-26T21:50:06.219Z,63.60
2019-05-26T21:52:35.494Z,63.70
2019-05-26T21:55:04.740Z,63.80
2019-05-26T21:57:33.985Z,64.40
2019-05-26T22:00:03.165Z,63.40
2019-05-26T22:02:32.355Z,63.40
2019-05-26T22:05:01.594Z,63.50
2019-05-26T22:07:30.370Z,63.30
2019-05-26T22:09:59.141Z,63.40
2019-05-26T22:12:27.913Z,63.20
2019-05-26T22:14:56.685Z,63.20
2019-05-26T22:17:25.471Z,63.40
2019-05-26T22:19:55.087Z,63.60
2019-05-26T22:22:24.229Z,64.00
2019-05-26T22:24:53.465Z,64.50
2019-05-26T22:27:22.525Z,64.60
2019-05-26T22:29:51.566Z,63.50
2019-05-26T22:32:20.519Z,63.80
2019-05-26T22:34:49.965Z,63.50
2019-05-26T22:37:19.072Z,63.80
2019-05-26T22:39:48.186Z,63.70
2019-05-26T22:42:17.529Z,63.70
2019-05-26T22:44:46.666Z,63.50
2019-05-26T22:47:15.731Z,63.30
2019-05-26T22:49:44.949Z,62.90
2019-05-26T22:52:17.544Z,62.70
2019-05-26T22:54:45.090Z,62.60
2019-05-26T22:57:14.518Z,63.20
2019-05-26T22:59:43.635Z,62.60
2019-05-26T23:02:12.803Z,62.40
2019-05-26T23:04:41.957Z,62.20
2019-05-26T23:07:11.139Z,62.20
2019-05-26T23:09:40.339Z,61.80
2019-05-26T23:12:09.460Z,61.90
2019-05-26T23:14:38.522Z,62.10
2019-05-26T23:17:07.733Z,61.90
2019-05-26T23:19:36.808Z,61.90
2019-05-26T23:22:06.280Z,62.10
2019-05-26T23:24:35.371Z,61.80
2019-05-26T23:27:04.520Z,61.30
2019-05-26T23:29:33.647Z,61.50
2019-05-26T23:32:02.796Z,61.80
2019-05-26T23:34:31.932Z,62.10
2019-05-26T23:37:01.110Z,62.20
2019-05-26T23:39:30.386Z,62.10
2019-05-26T23:41:59.476Z,62.20
2019-05-26T23:44:28.906Z,62.40
2019-05-26T23:46:58.368Z,62.60
2019-05-26T23:49:27.595Z,63.90
2019-05-26T23:51:56.686Z,63.50
2019-05-26T23:54:25.751Z,63.80
2019-05-26T23:56:54.821Z,64.80
2019-05-26T23:59:23.873Z,65.10
